sensor_id;sensor_type;location;lat;lon;timestamp;P1;durP1;ratioP1;P2;durP2;ratioP2
14001;SDS011;7076;51.280;12.584;2022-12-24T00:02:49;3.03;;;0.77;;
14001;SDS011;7076;51.280;12.584;2022-12-24T00:07:52;3.00;;;0.95;;
14001;SDS011;7076;51.280;12.584;2022-12-24T00:12:56;2.90;;;1.02;;
14001;SDS011;7076;51.280;12.584;2022-12-24T00:17:59;3.53;;;1.00;;
14001;SDS011;7076;51.280;12.584;2022-12-24T00:23:02;1.58;;;0.90;;
14001;SDS011;7076;51.280;12.584;2022-12-24T00:28:06;3.45;;;1.17;;
14001;SDS011;7076;51.280;12.584;2022-12-24T00:33:09;5.03;;;1.15;;
14001;SDS011;7076;51.280;12.584;2022-12-24T00:38:12;3.05;;;1.00;;
14001;SDS011;7076;51.280;12.584;2022-12-24T00:43:16;5.55;;;1.30;;
14001;SDS011;7076;51.280;12.584;2022-12-24T00:48:19;4.65;;;1.20;;
14001;SDS011;7076;51.280;12.584;2022-12-24T00:53:23;4.95;;;1.00;;
14001;SDS011;7076;51.280;12.584;2022-12-24T00:58:27;3.40;;;1.00;;
14001;SDS011;7076;51.280;12.584;2022-12-24T01:03:30;4.90;;;1.17;;
14001;SDS011;7076;51.280;12.584;2022-12-24T01:08:36;7.68;;;1.52;;
14001;SDS011;7076;51.280;12.584;2022-12-24T01:13:40;8.07;;;1.50;;
14001;SDS011;7076;51.280;12.584;2022-12-24T01:18:43;6.00;;;1.40;;
14001;SDS011;7076;51.280;12.584;2022-12-24T01:23:46;7.38;;;1.80;;
14001;SDS011;7076;51.280;12.584;2022-12-24T01:28:50;5.40;;;1.35;;
14001;SDS011;7076;51.280;12.584;2022-12-24T01:33:53;4.82;;;1.20;;
14001;SDS011;7076;51.280;12.584;2022-12-24T01:38:56;5.20;;;1.00;;
14001;SDS011;7076;51.280;12.584;2022-12-24T01:49:19;5.63;;;1.50;;
14001;SDS011;7076;51.280;12.584;2022-12-24T01:54:23;7.03;;;1.30;;
14001;SDS011;7076;51.280;12.584;2022-12-24T01:59:29;4.68;;;1.02;;
14001;SDS011;7076;51.280;12.584;2022-12-24T02:04:33;7.70;;;1.30;;
14001;SDS011;7076;51.280;12.584;2022-12-24T02:09:38;4.30;;;1.05;;
14001;SDS011;7076;51.280;12.584;2022-12-24T02:14:43;2.78;;;1.10;;
14001;SDS011;7076;51.280;12.584;2022-12-24T02:19:58;4.70;;;1.38;;
14001;SDS011;7076;51.280;12.584;2022-12-24T02:25:24;4.40;;;1.13;;
14001;SDS011;7076;51.280;12.584;2022-12-24T02:30:37;4.88;;;1.63;;
14001;SDS011;7076;51.280;12.584;2022-12-24T02:35:45;6.20;;;1.27;;
14001;SDS011;7076;51.280;12.584;2022-12-24T02:40:52;6.55;;;1.20;;
14001;SDS011;7076;51.280;12.584;2022-12-24T02:46:00;5.90;;;1.33;;
14001;SDS011;7076;51.280;12.584;2022-12-24T02:51:05;4.95;;;1.00;;
14001;SDS011;7076;51.280;12.584;2022-12-24T03:01:44;4.15;;;1.20;;
14001;SDS011;7076;51.280;12.584;2022-12-24T03:06:55;6.78;;;1.55;;
14001;SDS011;7076;51.280;12.584;2022-12-24T03:12:03;7.22;;;1.17;;
14001;SDS011;7076;51.280;12.584;2022-12-24T03:17:10;3.88;;;0.95;;
14001;SDS011;7076;51.280;12.584;2022-12-24T03:22:13;3.83;;;1.00;;
14001;SDS011;7076;51.280;12.584;2022-12-24T03:27:17;5.07;;;1.00;;
14001;SDS011;7076;51.280;12.584;2022-12-24T03:32:23;3.67;;;1.20;;
14001;SDS011;7076;51.280;12.584;2022-12-24T03:37:27;4.32;;;1.40;;
14001;SDS011;7076;51.280;12.584;2022-12-24T03:42:30;3.15;;;0.85;;
14001;SDS011;7076;51.280;12.584;2022-12-24T03:47:34;2.35;;;0.90;;
14001;SDS011;7076;51.280;12.584;2022-12-24T03:52:37;3.00;;;1.10;;
14001;SDS011;7076;51.280;12.584;2022-12-24T03:57:40;6.22;;;1.60;;
14001;SDS011;7076;51.280;12.584;2022-12-24T04:02:44;4.85;;;1.10;;
14001;SDS011;7076;51.280;12.584;2022-12-24T04:07:47;3.75;;;1.10;;
14001;SDS011;7076;51.280;12.584;2022-12-24T04:12:50;3.88;;;1.00;;
14001;SDS011;7076;51.280;12.584;2022-12-24T04:17:54;3.75;;;1.10;;
14001;SDS011;7076;51.280;12.584;2022-12-24T04:22:56;4.50;;;1.45;;
14001;SDS011;7076;51.280;12.584;2022-12-24T04:27:59;3.10;;;1.05;;
14001;SDS011;7076;51.280;12.584;2022-12-24T04:33:03;4.47;;;1.08;;
14001;SDS011;7076;51.280;12.584;2022-12-24T04:38:07;8.52;;;1.20;;
14001;SDS011;7076;51.280;12.584;2022-12-24T04:43:10;3.92;;;1.20;;
14001;SDS011;7076;51.280;12.584;2022-12-24T04:48:14;5.72;;;1.30;;
14001;SDS011;7076;51.280;12.584;2022-12-24T04:53:17;7.32;;;1.35;;
14001;SDS011;7076;51.280;12.584;2022-12-24T04:58:20;3.65;;;1.25;;
14001;SDS011;7076;51.280;12.584;2022-12-24T05:03:24;6.55;;;1.33;;
14001;SDS011;7076;51.280;12.584;2022-12-24T05:08:27;4.35;;;1.42;;
14001;SDS011;7076;51.280;12.584;2022-12-24T05:13:29;7.90;;;1.27;;
14001;SDS011;7076;51.280;12.584;2022-12-24T05:18:45;7.53;;;1.42;;
14001;SDS011;7076;51.280;12.584;2022-12-24T05:23:49;5.45;;;1.42;;
14001;SDS011;7076;51.280;12.584;2022-12-24T05:29:09;4.68;;;1.13;;
14001;SDS011;7076;51.280;12.584;2022-12-24T05:34:15;3.03;;;1.02;;
14001;SDS011;7076;51.280;12.584;2022-12-24T05:39:18;8.85;;;1.67;;
14001;SDS011;7076;51.280;12.584;2022-12-24T05:44:21;5.03;;;1.13;;
14001;SDS011;7076;51.280;12.584;2022-12-24T05:49:25;7.05;;;1.20;;
14001;SDS011;7076;51.280;12.584;2022-12-24T05:54:29;7.82;;;1.70;;
14001;SDS011;7076;51.280;12.584;2022-12-24T05:59:31;6.45;;;1.35;;
14001;SDS011;7076;51.280;12.584;2022-12-24T06:04:36;7.40;;;1.42;;
14001;SDS011;7076;51.280;12.584;2022-12-24T06:09:39;4.97;;;1.30;;
14001;SDS011;7076;51.280;12.584;2022-12-24T06:14:42;5.00;;;1.33;;
14001;SDS011;7076;51.280;12.584;2022-12-24T06:19:46;8.15;;;1.30;;
14001;SDS011;7076;51.280;12.584;2022-12-24T06:24:48;5.70;;;1.45;;
14001;SDS011;7076;51.280;12.584;2022-12-24T06:29:51;5.15;;;1.25;;
14001;SDS011;7076;51.280;12.584;2022-12-24T06:34:55;7.40;;;1.85;;
14001;SDS011;7076;51.280;12.584;2022-12-24T06:39:58;9.85;;;1.63;;
14001;SDS011;7076;51.280;12.584;2022-12-24T06:45:01;6.10;;;1.25;;
14001;SDS011;7076;51.280;12.584;2022-12-24T06:50:10;6.97;;;1.30;;
14001;SDS011;7076;51.280;12.584;2022-12-24T06:55:13;4.20;;;1.27;;
14001;SDS011;7076;51.280;12.584;2022-12-24T07:00:16;3.60;;;0.90;;
14001;SDS011;7076;51.280;12.584;2022-12-24T07:05:21;7.13;;;1.67;;
14001;SDS011;7076;51.280;12.584;2022-12-24T07:10:24;4.28;;;1.17;;
14001;SDS011;7076;51.280;12.584;2022-12-24T07:15:26;6.03;;;1.55;;
14001;SDS011;7076;51.280;12.584;2022-12-24T07:20:31;6.32;;;1.10;;
14001;SDS011;7076;51.280;12.584;2022-12-24T07:25:34;9.50;;;1.27;;
14001;SDS011;7076;51.280;12.584;2022-12-24T07:30:38;4.78;;;1.17;;
14001;SDS011;7076;51.280;12.584;2022-12-24T07:35:42;2.38;;;0.80;;
14001;SDS011;7076;51.280;12.584;2022-12-24T07:40:44;4.18;;;0.75;;
14001;SDS011;7076;51.280;12.584;2022-12-24T07:45:47;7.88;;;1.15;;
14001;SDS011;7076;51.280;12.584;2022-12-24T07:50:51;3.08;;;0.95;;
14001;SDS011;7076;51.280;12.584;2022-12-24T07:55:54;3.67;;;1.05;;
14001;SDS011;7076;51.280;12.584;2022-12-24T08:00:58;5.03;;;0.98;;
14001;SDS011;7076;51.280;12.584;2022-12-24T08:06:03;6.95;;;1.73;;
14001;SDS011;7076;51.280;12.584;2022-12-24T08:11:06;6.55;;;1.27;;
14001;SDS011;7076;51.280;12.584;2022-12-24T08:16:09;8.02;;;1.40;;
14001;SDS011;7076;51.280;12.584;2022-12-24T08:21:13;3.10;;;0.98;;
14001;SDS011;7076;51.280;12.584;2022-12-24T08:26:16;8.75;;;1.40;;
14001;SDS011;7076;51.280;12.584;2022-12-24T08:31:19;7.95;;;1.80;;
14001;SDS011;7076;51.280;12.584;2022-12-24T08:36:23;2.85;;;1.05;;
14001;SDS011;7076;51.280;12.584;2022-12-24T08:41:26;5.93;;;1.50;;
14001;SDS011;7076;51.280;12.584;2022-12-24T08:46:28;9.82;;;1.88;;
14001;SDS011;7076;51.280;12.584;2022-12-24T08:51:33;7.65;;;1.70;;
14001;SDS011;7076;51.280;12.584;2022-12-24T08:56:35;4.60;;;1.73;;
14001;SDS011;7076;51.280;12.584;2022-12-24T09:01:38;3.72;;;1.10;;
14001;SDS011;7076;51.280;12.584;2022-12-24T09:06:43;8.25;;;1.80;;
14001;SDS011;7076;51.280;12.584;2022-12-24T09:11:45;4.45;;;1.17;;
14001;SDS011;7076;51.280;12.584;2022-12-24T09:16:48;5.47;;;1.40;;
14001;SDS011;7076;51.280;12.584;2022-12-24T09:21:53;14.13;;;1.88;;
14001;SDS011;7076;51.280;12.584;2022-12-24T09:26:56;4.82;;;1.65;;
14001;SDS011;7076;51.280;12.584;2022-12-24T09:31:59;7.88;;;1.83;;
14001;SDS011;7076;51.280;12.584;2022-12-24T09:37:04;6.55;;;1.80;;
14001;SDS011;7076;51.280;12.584;2022-12-24T09:42:09;8.45;;;1.63;;
14001;SDS011;7076;51.280;12.584;2022-12-24T09:47:21;8.63;;;1.70;;
14001;SDS011;7076;51.280;12.584;2022-12-24T09:52:28;8.90;;;1.50;;
14001;SDS011;7076;51.280;12.584;2022-12-24T09:57:37;6.55;;;1.65;;
14001;SDS011;7076;51.280;12.584;2022-12-24T10:02:43;4.38;;;1.20;;
14001;SDS011;7076;51.280;12.584;2022-12-24T10:07:49;4.82;;;1.23;;
14001;SDS011;7076;51.280;12.584;2022-12-24T10:13:00;10.75;;;1.40;;
14001;SDS011;7076;51.280;12.584;2022-12-24T10:18:10;5.03;;;1.48;;
14001;SDS011;7076;51.280;12.584;2022-12-24T10:23:23;4.28;;;1.60;;
14001;SDS011;7076;51.280;12.584;2022-12-24T10:28:32;6.80;;;1.30;;
14001;SDS011;7076;51.280;12.584;2022-12-24T10:33:39;7.88;;;1.67;;
14001;SDS011;7076;51.280;12.584;2022-12-24T10:38:44;3.22;;;0.82;;
14001;SDS011;7076;51.280;12.584;2022-12-24T10:43:48;3.85;;;0.98;;
14001;SDS011;7076;51.280;12.584;2022-12-24T10:48:52;5.20;;;1.00;;
14001;SDS011;7076;51.280;12.584;2022-12-24T10:53:59;1.55;;;0.90;;
14001;SDS011;7076;51.280;12.584;2022-12-24T10:59:03;3.30;;;0.70;;
14001;SDS011;7076;51.280;12.584;2022-12-24T11:04:12;5.35;;;0.90;;
14001;SDS011;7076;51.280;12.584;2022-12-24T11:09:20;5.97;;;0.93;;
14001;SDS011;7076;51.280;12.584;2022-12-24T11:14:24;3.25;;;0.77;;
14001;SDS011;7076;51.280;12.584;2022-12-24T11:19:30;2.35;;;1.00;;
14001;SDS011;7076;51.280;12.584;2022-12-24T11:24:35;3.10;;;0.93;;
14001;SDS011;7076;51.280;12.584;2022-12-24T11:29:45;2.75;;;0.90;;
14001;SDS011;7076;51.280;12.584;2022-12-24T11:34:48;2.88;;;0.90;;
14001;SDS011;7076;51.280;12.584;2022-12-24T11:39:53;3.92;;;1.00;;
14001;SDS011;7076;51.280;12.584;2022-12-24T11:44:57;1.65;;;1.00;;
14001;SDS011;7076;51.280;12.584;2022-12-24T11:55:32;2.58;;;0.75;;
14001;SDS011;7076;51.280;12.584;2022-12-24T12:00:41;2.85;;;0.75;;
14001;SDS011;7076;51.280;12.584;2022-12-24T12:05:45;3.95;;;1.00;;
14001;SDS011;7076;51.280;12.584;2022-12-24T12:10:49;4.05;;;0.77;;
14001;SDS011;7076;51.280;12.584;2022-12-24T12:16:00;2.70;;;1.00;;
14001;SDS011;7076;51.280;12.584;2022-12-24T12:21:08;4.32;;;1.15;;
14001;SDS011;7076;51.280;12.584;2022-12-24T12:26:16;4.93;;;1.10;;
14001;SDS011;7076;51.280;12.584;2022-12-24T12:31:22;4.70;;;0.90;;
14001;SDS011;7076;51.280;12.584;2022-12-24T12:36:29;2.88;;;1.00;;
14001;SDS011;7076;51.280;12.584;2022-12-24T12:41:38;3.25;;;1.40;;
14001;SDS011;7076;51.280;12.584;2022-12-24T12:46:52;2.05;;;0.88;;
14001;SDS011;7076;51.280;12.584;2022-12-24T12:52:04;2.55;;;1.10;;
14001;SDS011;7076;51.280;12.584;2022-12-24T12:57:14;3.40;;;1.40;;
14001;SDS011;7076;51.280;12.584;2022-12-24T13:02:24;4.18;;;1.00;;
14001;SDS011;7076;51.280;12.584;2022-12-24T13:07:46;4.80;;;1.20;;
14001;SDS011;7076;51.280;12.584;2022-12-24T13:13:05;3.95;;;1.20;;
14001;SDS011;7076;51.280;12.584;2022-12-24T13:18:26;3.83;;;1.00;;
14001;SDS011;7076;51.280;12.584;2022-12-24T13:23:36;3.13;;;1.15;;
14001;SDS011;7076;51.280;12.584;2022-12-24T13:28:40;4.32;;;1.85;;
14001;SDS011;7076;51.280;12.584;2022-12-24T13:33:47;2.60;;;0.90;;
14001;SDS011;7076;51.280;12.584;2022-12-24T13:38:50;6.95;;;1.27;;
14001;SDS011;7076;51.280;12.584;2022-12-24T13:44:08;3.00;;;1.00;;
14001;SDS011;7076;51.280;12.584;2022-12-24T13:49:17;3.35;;;1.10;;
14001;SDS011;7076;51.280;12.584;2022-12-24T13:54:22;5.47;;;1.35;;
14001;SDS011;7076;51.280;12.584;2022-12-24T13:59:32;4.45;;;1.50;;
14001;SDS011;7076;51.280;12.584;2022-12-24T14:04:39;7.13;;;1.40;;
14001;SDS011;7076;51.280;12.584;2022-12-24T14:09:45;4.97;;;2.53;;
14001;SDS011;7076;51.280;12.584;2022-12-24T14:14:50;4.55;;;1.63;;
14001;SDS011;7076;51.280;12.584;2022-12-24T14:19:54;5.07;;;1.55;;
14001;SDS011;7076;51.280;12.584;2022-12-24T14:24:58;5.10;;;1.30;;
14001;SDS011;7076;51.280;12.584;2022-12-24T14:30:06;4.57;;;1.58;;
14001;SDS011;7076;51.280;12.584;2022-12-24T14:35:16;8.50;;;1.40;;
14001;SDS011;7076;51.280;12.584;2022-12-24T14:40:20;6.57;;;1.40;;
14001;SDS011;7076;51.280;12.584;2022-12-24T14:45:27;3.22;;;1.15;;
14001;SDS011;7076;51.280;12.584;2022-12-24T14:50:39;4.55;;;1.90;;
14001;SDS011;7076;51.280;12.584;2022-12-24T14:55:53;4.60;;;1.80;;
14001;SDS011;7076;51.280;12.584;2022-12-24T15:00:58;5.43;;;1.70;;
14001;SDS011;7076;51.280;12.584;2022-12-24T15:06:02;6.13;;;1.70;;
14001;SDS011;7076;51.280;12.584;2022-12-24T15:11:07;3.53;;;1.52;;
14001;SDS011;7076;51.280;12.584;2022-12-24T15:16:12;6.10;;;1.63;;
14001;SDS011;7076;51.280;12.584;2022-12-24T15:21:17;7.47;;;1.75;;
14001;SDS011;7076;51.280;12.584;2022-12-24T15:26:24;7.55;;;1.70;;
14001;SDS011;7076;51.280;12.584;2022-12-24T15:31:30;3.17;;;1.05;;
14001;SDS011;7076;51.280;12.584;2022-12-24T15:36:33;4.30;;;1.48;;
14001;SDS011;7076;51.280;12.584;2022-12-24T15:41:37;4.63;;;1.58;;
14001;SDS011;7076;51.280;12.584;2022-12-24T15:47:03;4.65;;;1.13;;
14001;SDS011;7076;51.280;12.584;2022-12-24T15:52:08;4.97;;;1.77;;
14001;SDS011;7076;51.280;12.584;2022-12-24T15:57:13;5.38;;;1.35;;
14001;SDS011;7076;51.280;12.584;2022-12-24T16:02:34;6.18;;;1.70;;
14001;SDS011;7076;51.280;12.584;2022-12-24T16:07:39;5.20;;;1.65;;
14001;SDS011;7076;51.280;12.584;2022-12-24T16:12:55;6.47;;;1.40;;
14001;SDS011;7076;51.280;12.584;2022-12-24T16:18:00;3.97;;;1.60;;
14001;SDS011;7076;51.280;12.584;2022-12-24T16:23:02;5.90;;;1.92;;
14001;SDS011;7076;51.280;12.584;2022-12-24T16:28:07;3.95;;;1.30;;
14001;SDS011;7076;51.280;12.584;2022-12-24T16:33:21;6.32;;;1.48;;
14001;SDS011;7076;51.280;12.584;2022-12-24T16:38:24;7.18;;;1.55;;
14001;SDS011;7076;51.280;12.584;2022-12-24T16:43:47;7.75;;;2.03;;
14001;SDS011;7076;51.280;12.584;2022-12-24T16:48:54;5.85;;;1.77;;
14001;SDS011;7076;51.280;12.584;2022-12-24T16:53:57;2.05;;;1.05;;
14001;SDS011;7076;51.280;12.584;2022-12-24T16:59:01;6.63;;;1.65;;
14001;SDS011;7076;51.280;12.584;2022-12-24T17:04:05;4.38;;;1.60;;
14001;SDS011;7076;51.280;12.584;2022-12-24T17:09:08;6.43;;;1.73;;
14001;SDS011;7076;51.280;12.584;2022-12-24T17:14:12;5.75;;;1.48;;
14001;SDS011;7076;51.280;12.584;2022-12-24T17:19:22;5.50;;;1.25;;
14001;SDS011;7076;51.280;12.584;2022-12-24T17:24:24;5.93;;;1.45;;
14001;SDS011;7076;51.280;12.584;2022-12-24T17:29:27;4.50;;;1.27;;
14001;SDS011;7076;51.280;12.584;2022-12-24T17:34:32;6.07;;;1.60;;
14001;SDS011;7076;51.280;12.584;2022-12-24T17:39:34;5.72;;;1.48;;
14001;SDS011;7076;51.280;12.584;2022-12-24T17:44:37;3.65;;;1.30;;
14001;SDS011;7076;51.280;12.584;2022-12-24T17:49:42;5.13;;;1.55;;
14001;SDS011;7076;51.280;12.584;2022-12-24T17:54:44;3.67;;;1.30;;
14001;SDS011;7076;51.280;12.584;2022-12-24T17:59:47;4.97;;;1.63;;
14001;SDS011;7076;51.280;12.584;2022-12-24T18:04:51;3.63;;;1.60;;
14001;SDS011;7076;51.280;12.584;2022-12-24T18:09:54;7.75;;;1.55;;
14001;SDS011;7076;51.280;12.584;2022-12-24T18:14:57;7.93;;;2.28;;
14001;SDS011;7076;51.280;12.584;2022-12-24T18:20:02;6.10;;;2.22;;
14001;SDS011;7076;51.280;12.584;2022-12-24T18:25:05;3.58;;;1.70;;
14001;SDS011;7076;51.280;12.584;2022-12-24T18:30:08;10.27;;;2.28;;
14001;SDS011;7076;51.280;12.584;2022-12-24T18:35:13;5.85;;;1.90;;
14001;SDS011;7076;51.280;12.584;2022-12-24T18:40:16;3.67;;;1.42;;
14001;SDS011;7076;51.280;12.584;2022-12-24T18:45:20;3.33;;;1.63;;
14001;SDS011;7076;51.280;12.584;2022-12-24T18:50:24;5.20;;;1.92;;
14001;SDS011;7076;51.280;12.584;2022-12-24T18:55:27;4.13;;;1.80;;
14001;SDS011;7076;51.280;12.584;2022-12-24T19:00:31;4.18;;;1.67;;
14001;SDS011;7076;51.280;12.584;2022-12-24T19:05:36;4.03;;;1.50;;
14001;SDS011;7076;51.280;12.584;2022-12-24T19:10:38;3.05;;;1.65;;
14001;SDS011;7076;51.280;12.584;2022-12-24T19:15:41;4.05;;;1.48;;
14001;SDS011;7076;51.280;12.584;2022-12-24T19:20:45;7.30;;;1.52;;
14001;SDS011;7076;51.280;12.584;2022-12-24T19:25:48;7.80;;;1.60;;
14001;SDS011;7076;51.280;12.584;2022-12-24T19:30:51;6.63;;;1.90;;
14001;SDS011;7076;51.280;12.584;2022-12-24T19:35:55;4.40;;;1.75;;
14001;SDS011;7076;51.280;12.584;2022-12-24T19:41:03;4.53;;;1.42;;
14001;SDS011;7076;51.280;12.584;2022-12-24T19:46:07;6.28;;;1.73;;
14001;SDS011;7076;51.280;12.584;2022-12-24T19:51:12;6.18;;;1.88;;
14001;SDS011;7076;51.280;12.584;2022-12-24T19:56:15;3.30;;;1.45;;
14001;SDS011;7076;51.280;12.584;2022-12-24T20:01:20;8.63;;;1.95;;
14001;SDS011;7076;51.280;12.584;2022-12-24T20:06:26;2.88;;;2.03;;
14001;SDS011;7076;51.280;12.584;2022-12-24T20:11:30;2.33;;;1.33;;
14001;SDS011;7076;51.280;12.584;2022-12-24T20:16:33;3.35;;;1.40;;
14001;SDS011;7076;51.280;12.584;2022-12-24T20:21:38;3.63;;;1.42;;
14001;SDS011;7076;51.280;12.584;2022-12-24T20:26:41;3.67;;;1.45;;
14001;SDS011;7076;51.280;12.584;2022-12-24T20:31:43;5.63;;;1.90;;
14001;SDS011;7076;51.280;12.584;2022-12-24T20:36:48;4.32;;;1.85;;
14001;SDS011;7076;51.280;12.584;2022-12-24T20:41:51;5.18;;;2.28;;
14001;SDS011;7076;51.280;12.584;2022-12-24T20:46:53;11.70;;;2.15;;
14001;SDS011;7076;51.280;12.584;2022-12-24T20:51:58;4.32;;;2.25;;
14001;SDS011;7076;51.280;12.584;2022-12-24T20:57:01;4.88;;;3.05;;
14001;SDS011;7076;51.280;12.584;2022-12-24T21:02:03;5.32;;;2.85;;
14001;SDS011;7076;51.280;12.584;2022-12-24T21:07:08;6.30;;;2.25;;
14001;SDS011;7076;51.280;12.584;2022-12-24T21:12:14;5.80;;;2.20;;
14001;SDS011;7076;51.280;12.584;2022-12-24T21:17:35;5.30;;;1.70;;
14001;SDS011;7076;51.280;12.584;2022-12-24T21:22:39;4.22;;;1.90;;
14001;SDS011;7076;51.280;12.584;2022-12-24T21:27:42;6.13;;;2.10;;
14001;SDS011;7076;51.280;12.584;2022-12-24T21:32:45;3.85;;;2.30;;
14001;SDS011;7076;51.280;12.584;2022-12-24T21:37:49;5.95;;;1.88;;
14001;SDS011;7076;51.280;12.584;2022-12-24T21:42:51;4.05;;;1.67;;
14001;SDS011;7076;51.280;12.584;2022-12-24T21:47:54;6.38;;;2.10;;
14001;SDS011;7076;51.280;12.584;2022-12-24T21:52:59;4.90;;;1.95;;
14001;SDS011;7076;51.280;12.584;2022-12-24T21:58:16;6.95;;;1.83;;
14001;SDS011;7076;51.280;12.584;2022-12-24T22:03:18;8.45;;;2.28;;
14001;SDS011;7076;51.280;12.584;2022-12-24T22:08:23;5.50;;;1.63;;
14001;SDS011;7076;51.280;12.584;2022-12-24T22:13:43;3.97;;;1.70;;
14001;SDS011;7076;51.280;12.584;2022-12-24T22:18:46;4.72;;;1.58;;
14001;SDS011;7076;51.280;12.584;2022-12-24T22:23:50;3.58;;;1.73;;
14001;SDS011;7076;51.280;12.584;2022-12-24T22:28:53;8.48;;;1.85;;
14001;SDS011;7076;51.280;12.584;2022-12-24T22:33:56;8.57;;;2.17;;
14001;SDS011;7076;51.280;12.584;2022-12-24T22:39:00;3.72;;;1.50;;
14001;SDS011;7076;51.280;12.584;2022-12-24T22:44:03;6.70;;;1.70;;
14001;SDS011;7076;51.280;12.584;2022-12-24T22:49:07;3.75;;;1.60;;
14001;SDS011;7076;51.280;12.584;2022-12-24T22:54:12;5.13;;;1.63;;
14001;SDS011;7076;51.280;12.584;2022-12-24T22:59:15;8.23;;;2.05;;
14001;SDS011;7076;51.280;12.584;2022-12-24T23:04:18;5.53;;;2.10;;
14001;SDS011;7076;51.280;12.584;2022-12-24T23:09:22;3.60;;;1.65;;
14001;SDS011;7076;51.280;12.584;2022-12-24T23:14:25;4.10;;;1.90;;
14001;SDS011;7076;51.280;12.584;2022-12-24T23:19:45;3.28;;;1.45;;
14001;SDS011;7076;51.280;12.584;2022-12-24T23:24:49;7.05;;;2.05;;
14001;SDS011;7076;51.280;12.584;2022-12-24T23:29:52;6.50;;;1.92;;
14001;SDS011;7076;51.280;12.584;2022-12-24T23:34:55;6.28;;;2.00;;
14001;SDS011;7076;51.280;12.584;2022-12-24T23:39:59;2.75;;;1.58;;
14001;SDS011;7076;51.280;12.584;2022-12-24T23:45:02;2.95;;;1.48;;
14001;SDS011;7076;51.280;12.584;2022-12-24T23:50:06;4.47;;;1.70;;
14001;SDS011;7076;51.280;12.584;2022-12-24T23:55:11;5.95;;;1.60;;
